Time;durP1;ratioP1;P1;durP2;ratioP2;P2;SDS_P1;SDS_P2;PMS_P1;PMS_P2;Temp;Humidity;BMP_temperature;BMP_pressure;BME280_temperature;BME280_humidity;BME280_pressure;Samples;Min_cycle;Max_cycle;Signal;HPM_P1;HPM_P2
2023/10/02 00:01:10;;;;;;;18.10;7.88;;;;;;;14.09;100.00;101938.41;5029139;28;20030;-89
2023/10/02 00:03:39;;;;;;;17.33;7.93;;;;;;;14.08;100.00;101930.59;5014806;28;20020;-89
2023/10/02 00:06:11;;;;;;;21.17;8.30;;;;;;;14.09;100.00;101943.00;5032134;28;21053;-88
2023/10/02 00:08:42;;;;;;;16.25;8.00;;;;;;;14.09;100.00;101937.63;5032460;28;20025;-88
2023/10/02 00:17:13;;;;;;;20.77;8.45;;;;;;;14.03;100.00;101936.75;5030993;28;20135;-89
2023/10/02 00:19:37;;;;;;;19.52;8.48;;;;;;;14.02;100.00;101937.00;5031888;28;20048;-89
2023/10/02 00:22:08;;;;;;;16.38;8.25;;;;;;;13.97;100.00;101945.84;5021243;28;20030;-89
2023/10/02 00:24:47;;;;;;;16.50;8.05;;;;;;;13.94;100.00;101943.66;5024588;28;20105;-89
2023/10/02 00:27:13;;;;;;;21.03;8.70;;;;;;;13.88;100.00;101931.19;5036303;28;20042;-88
2023/10/02 00:29:57;;;;;;;18.93;8.10;;;;;;;13.89;100.00;101946.28;5043912;28;20326;-89
2023/10/02 00:32:26;;;;;;;19.42;8.20;;;;;;;13.82;100.00;101937.59;5048839;28;20085;-89
2023/10/02 00:34:52;;;;;;;20.77;8.63;;;;;;;13.82;100.00;101935.72;5043225;28;20060;-88
2023/10/02 00:37:18;;;;;;;16.10;8.02;;;;;;;13.78;100.00;101940.00;5040185;28;20419;-90
2023/10/02 00:39:52;;;;;;;15.00;7.72;;;;;;;13.76;100.00;101942.91;5045495;28;20045;-89
2023/10/02 00:42:24;;;;;;;17.70;7.80;;;;;;;13.71;100.00;101932.09;5048720;28;20118;-91
2023/10/02 00:44:54;;;;;;;18.00;8.13;;;;;;;13.71;100.00;101934.78;5050755;28;20120;-89
2023/10/02 00:47:50;;;;;;;20.43;8.23;;;;;;;13.69;100.00;101936.94;5050656;28;20284;-88
2023/10/02 00:50:18;;;;;;;18.98;7.97;;;;;;;13.66;100.00;101929.34;5029584;28;20073;-89
2023/10/02 00:52:55;;;;;;;21.83;8.40;;;;;;;13.65;100.00;101925.03;5036377;28;20029;-88
2023/10/02 00:55:43;;;;;;;22.33;8.18;;;;;;;13.61;100.00;101924.69;5033023;28;20083;-89
2023/10/02 00:58:15;;;;;;;18.92;7.20;;;;;;;13.55;100.00;101924.88;5031423;28;20111;-89
2023/10/02 01:00:47;;;;;;;14.70;7.50;;;;;;;13.54;100.00;101923.25;5030557;28;20040;-89
2023/10/02 01:03:15;;;;;;;17.30;7.25;;;;;;;13.50;100.00;101928.34;5030205;28;20021;-89
2023/10/02 01:05:42;;;;;;;22.15;8.48;;;;;;;13.51;100.00;101921.09;5033485;28;20025;-89
2023/10/02 01:08:23;;;;;;;20.53;7.70;;;;;;;13.50;100.00;101927.53;5030597;28;20484;-88
2023/10/02 01:11:00;;;;;;;14.73;7.27;;;;;;;13.45;100.00;101921.03;5036558;28;20295;-88
2023/10/02 01:13:34;;;;;;;18.70;8.07;;;;;;;13.44;100.00;101918.56;5028809;28;20041;-87
2023/10/02 01:16:07;;;;;;;17.42;7.45;;;;;;;13.45;100.00;101921.03;5030809;28;20025;-88
2023/10/02 01:18:34;;;;;;;18.00;7.82;;;;;;;13.40;100.00;101915.56;5027226;28;20049;-88
2023/10/02 01:21:01;;;;;;;19.48;7.75;;;;;;;13.39;100.00;101913.09;5027750;28;20122;-88
2023/10/02 01:23:33;;;;;;;14.35;7.82;;;;;;;13.36;100.00;101919.00;5028294;28;20034;-88
2023/10/02 01:26:00;;;;;;;19.90;7.78;;;;;;;13.33;100.00;101913.03;5028069;28;20021;-88
2023/10/02 01:28:32;;;;;;;17.70;8.10;;;;;;;13.31;100.00;101908.97;5029771;28;20048;-88
2023/10/02 01:30:59;;;;;;;19.25;8.00;;;;;;;13.32;100.00;101908.72;5026594;28;20050;-88
2023/10/02 01:33:32;;;;;;;19.27;7.83;;;;;;;13.33;100.00;101912.19;5029968;28;20025;-88
2023/10/02 01:35:57;;;;;;;17.83;7.95;;;;;;;13.30;100.00;101912.72;5028765;28;20029;-88
2023/10/02 01:38:31;;;;;;;17.27;7.80;;;;;;;13.28;100.00;101912.16;5024640;28;20504;-88
2023/10/02 01:41:05;;;;;;;24.17;8.40;;;;;;;13.30;100.00;101902.75;5028316;28;20496;-88
2023/10/02 01:43:36;;;;;;;18.90;7.60;;;;;;;13.30;100.00;101910.84;5026325;28;20295;-88
2023/10/02 01:46:02;;;;;;;20.10;8.48;;;;;;;13.28;100.00;101904.09;5028735;28;20388;-88
2023/10/02 01:48:37;;;;;;;20.08;8.27;;;;;;;13.27;100.00;101905.94;5030337;28;20040;-88
2023/10/02 01:51:20;;;;;;;20.77;8.30;;;;;;;13.25;100.00;101896.50;5029599;28;20431;-88
2023/10/02 01:53:54;;;;;;;19.65;8.23;;;;;;;13.27;100.00;101903.25;5028248;28;20064;-88
2023/10/02 01:56:25;;;;;;;17.48;8.07;;;;;;;13.24;100.00;101903.75;5025126;28;20468;-87
2023/10/02 01:58:52;;;;;;;18.15;7.97;;;;;;;13.28;100.00;101904.88;5028240;28;20030;-88
2023/10/02 02:01:20;;;;;;;18.35;8.35;;;;;;;13.26;100.00;101900.81;5026529;28;20112;-88
2023/10/02 02:03:48;;;;;;;22.37;8.00;;;;;;;13.30;100.00;101902.75;5028984;28;20036;-88
2023/10/02 02:06:20;;;;;;;21.70;7.93;;;;;;;13.29;100.00;101908.41;5028267;28;20292;-88
2023/10/02 02:08:49;;;;;;;18.85;7.72;;;;;;;13.26;100.00;101904.31;5028038;28;20034;-88
2023/10/02 02:11:23;;;;;;;21.45;8.13;;;;;;;13.20;100.00;101897.25;5028238;28;20616;-88
2023/10/02 02:13:50;;;;;;;17.85;7.60;;;;;;;13.18;100.00;101902.88;5028366;28;20057;-88
2023/10/02 02:16:22;;;;;;;15.63;7.75;;;;;;;13.17;100.00;101903.13;5026099;28;20060;-88
2023/10/02 02:18:50;;;;;;;18.65;7.38;;;;;;;13.12;100.00;101903.88;5027638;28;20037;-88
2023/10/02 02:21:19;;;;;;;19.80;7.72;;;;;;;13.11;100.00;101902.25;5029144;28;20128;-88
2023/10/02 02:23:46;;;;;;;17.87;7.47;;;;;;;13.10;100.00;101897.94;5026486;28;20025;-88
2023/10/02 02:26:22;;;;;;;18.57;8.60;;;;;;;13.07;100.00;101900.28;5028050;28;20663;-88
2023/10/02 02:28:49;;;;;;;18.38;7.43;;;;;;;13.06;100.00;101896.78;5025043;28;20034;-88
2023/10/02 02:31:31;;;;;;;18.23;8.00;;;;;;;13.05;100.00;101897.84;5022435;28;20733;-88
2023/10/02 02:34:01;;;;;;;18.27;7.20;;;;;;;13.04;100.00;101904.31;5029380;28;20025;-88
2023/10/02 02:36:28;;;;;;;18.42;7.68;;;;;;;12.98;100.00;101894.53;5029354;28;20037;-88
2023/10/02 02:41:39;;;;;;;20.63;7.20;;;;;;;12.99;100.00;101896.16;5032685;28;20619;-86
2023/10/02 02:44:06;;;;;;;19.30;8.13;;;;;;;13.00;100.00;101892.41;5031899;28;20382;-86
2023/10/02 02:46:32;;;;;;;17.45;7.68;;;;;;;13.00;100.00;101889.72;5037869;28;20395;-87
2023/10/02 02:49:00;;;;;;;19.20;8.00;;;;;;;12.99;100.00;101890.78;5035181;28;20030;-86
2023/10/02 02:51:26;;;;;;;18.90;8.53;;;;;;;13.02;100.00;101887.59;5031864;28;20303;-86
2023/10/02 02:53:51;;;;;;;20.35;7.55;;;;;;;12.97;100.00;101874.06;5033433;28;20033;-86
2023/10/02 02:56:22;;;;;;;20.43;8.13;;;;;;;12.98;100.00;101889.97;5031581;28;20184;-86
2023/10/02 02:58:50;;;;;;;20.73;7.80;;;;;;;12.97;100.00;101879.44;5016666;28;20056;-85
2023/10/02 03:01:24;;;;;;;20.00;8.05;;;;;;;12.92;100.00;101869.44;5030671;28;20546;-86
2023/10/02 03:03:51;;;;;;;21.55;7.97;;;;;;;12.93;100.00;101875.63;5040857;28;20156;-86
2023/10/02 03:06:21;;;;;;;20.08;8.15;;;;;;;12.96;100.00;101883.22;5030038;28;20535;-87
2023/10/02 03:08:53;;;;;;;21.25;8.25;;;;;;;12.93;100.00;101872.94;5027369;28;20031;-87
2023/10/02 03:11:28;;;;;;;18.10;8.35;;;;;;;12.95;100.00;101881.59;5032801;28;20029;-86
2023/10/02 03:14:11;;;;;;;16.90;7.77;;;;;;;12.97;100.00;101877.59;5034229;28;20108;-87
2023/10/02 03:16:38;;;;;;;16.90;7.60;;;;;;;12.99;100.00;101874.63;5031091;28;20326;-86
2023/10/02 03:19:03;;;;;;;17.52;8.30;;;;;;;12.94;100.00;101867.31;5028099;28;20481;-85
2023/10/02 03:21:30;;;;;;;21.08;7.90;;;;;;;13.01;100.00;101867.13;5026029;28;20075;-87
2023/10/02 03:23:59;;;;;;;20.77;8.63;;;;;;;13.07;100.00;101860.75;5024016;28;20497;-86
2023/10/02 03:26:37;;;;;;;21.27;7.63;;;;;;;13.10;100.00;101864.81;5025026;28;20029;-87
2023/10/02 03:29:16;;;;;;;24.30;8.60;;;;;;;13.15;100.00;101852.25;5021151;28;20056;-87
2023/10/02 03:31:43;;;;;;;20.83;8.10;;;;;;;13.17;100.00;101854.69;5031013;28;20045;-87
2023/10/02 03:34:27;;;;;;;21.45;8.43;;;;;;;13.18;100.00;101854.44;5031892;28;20060;-87
2023/10/02 03:36:59;;;;;;;20.38;8.10;;;;;;;13.16;100.00;101853.88;5031580;28;20084;-87
2023/10/02 03:42:12;;;;;;;18.02;7.40;;;;;;;13.13;100.00;101858.94;5032703;28;20041;-87
2023/10/02 03:44:42;;;;;;;25.57;8.30;;;;;;;13.11;100.00;101855.69;5031550;28;20029;-87
2023/10/02 03:47:12;;;;;;;16.93;7.33;;;;;;;13.09;100.00;101855.94;5031313;28;20292;-87
2023/10/02 03:49:38;;;;;;;18.92;8.23;;;;;;;13.09;100.00;101852.44;5030508;28;20041;-87
2023/10/02 03:52:05;;;;;;;20.15;8.07;;;;;;;13.12;100.00;101855.44;5031807;28;20393;-87
2023/10/02 03:54:30;;;;;;;21.77;8.57;;;;;;;13.08;100.00;101861.56;5031437;28;20075;-89
2023/10/02 03:56:56;;;;;;;22.57;8.00;;;;;;;13.03;100.00;101856.94;5029855;28;20447;-87
2023/10/02 03:59:27;;;;;;;16.87;7.57;;;;;;;13.01;100.00;101857.19;5029248;28;20053;-87
2023/10/02 04:01:53;;;;;;;18.98;7.82;;;;;;;13.02;100.00;101866.06;5032543;28;20029;-87
2023/10/02 04:04:21;;;;;;;18.17;7.90;;;;;;;13.01;100.00;101862.56;5031818;28;20109;-87
2023/10/02 04:06:47;;;;;;;22.92;8.25;;;;;;;13.00;100.00;101865.50;5027890;28;20033;-87
2023/10/02 04:11:45;;;;;;;19.37;7.97;;;;;;;12.98;100.00;101865.75;5030828;28;20399;-87
2023/10/02 04:14:17;;;;;;;18.88;8.00;;;;;;;12.99;100.00;101864.69;5032319;28;20029;-86
2023/10/02 04:16:59;;;;;;;18.60;7.63;;;;;;;12.95;100.00;101862.75;5028466;28;20033;-86
2023/10/02 04:19:25;;;;;;;21.80;8.68;;;;;;;12.92;100.00;101858.66;5023518;28;20128;-87
2023/10/02 04:21:56;;;;;;;20.57;7.87;;;;;;;12.85;100.00;101853.47;5031930;28;20112;-86
2023/10/02 04:24:26;;;;;;;19.23;7.78;;;;;;;12.85;100.00;101863.44;5030050;28;20477;-88
2023/10/02 04:27:08;;;;;;;18.33;7.85;;;;;;;12.80;100.00;101866.84;5013860;28;20045;-86
2023/10/02 04:29:37;;;;;;;21.20;8.77;;;;;;;12.77;100.00;101850.38;5031531;28;20018;-86
2023/10/02 04:32:15;;;;;;;17.53;7.63;;;;;;;12.77;100.00;101853.91;5027461;28;20039;-88
2023/10/02 04:34:50;;;;;;;20.00;7.63;;;;;;;12.79;100.00;101853.66;5010912;28;20288;-88
2023/10/02 04:37:22;;;;;;;17.45;8.00;;;;;;;12.73;100.00;101855.47;5016274;28;20017;-87
2023/10/02 04:42:25;;;;;;;19.02;7.85;;;;;;;12.70;100.00;101862.13;5031253;28;20037;-88
2023/10/02 04:45:20;;;;;;;24.30;8.50;;;;;;;12.75;100.00;101856.03;5031862;28;20025;-88
2023/10/02 04:47:47;;;;;;;22.33;8.40;;;;;;;12.69;100.00;101843.56;5030164;28;20456;-89
2023/10/02 04:55:24;;;;;;;19.50;8.02;;;;;;;12.65;100.00;101854.00;5028607;28;20037;-89
2023/10/02 04:57:52;;;;;;;24.23;8.45;;;;;;;12.64;100.00;101860.44;5030388;28;20469;-87
2023/10/02 05:00:32;;;;;;;22.23;8.63;;;;;;;12.61;100.00;101857.41;5027935;28;20029;-86
2023/10/02 05:03:17;;;;;;;20.60;8.07;;;;;;;12.62;100.00;101842.91;5013258;28;20122;-86
2023/10/02 05:05:48;;;;;;;23.02;8.48;;;;;;;12.68;100.00;101847.31;5028755;28;20531;-86
2023/10/02 05:08:19;;;;;;;23.13;9.13;;;;;;;12.60;100.00;101837.78;5030532;28;20034;-86
2023/10/02 05:10:56;;;;;;;22.17;8.27;;;;;;;12.62;100.00;101850.97;5031784;28;20071;-86
2023/10/02 05:16:11;;;;;;;23.08;8.00;;;;;;;12.54;100.00;101844.97;5028775;28;20044;-88
2023/10/02 05:18:44;;;;;;;20.48;8.48;;;;;;;12.57;100.00;101847.19;5033389;28;20468;-87
2023/10/02 05:21:16;;;;;;;19.17;8.18;;;;;;;12.55;100.00;101843.91;5023910;28;20041;-86
2023/10/02 05:23:43;;;;;;;19.60;7.78;;;;;;;12.56;100.00;101855.47;5028344;28;20083;-87
2023/10/02 05:26:29;;;;;;;20.42;8.32;;;;;;;12.52;100.00;101859.69;5029872;28;20032;-89
2023/10/02 05:28:55;;;;;;;21.17;8.15;;;;;;;12.51;100.00;101860.75;5012189;28;20409;-90
2023/10/02 05:31:21;;;;;;;19.92;9.05;;;;;;;12.50;100.00;101859.16;5027232;28;20044;-83
2023/10/02 05:33:48;;;;;;;20.87;8.50;;;;;;;12.50;100.00;101857.28;5029158;28;20112;-83
2023/10/02 05:36:19;;;;;;;20.15;8.18;;;;;;;12.52;100.00;101857.84;5028362;28;20101;-83
2023/10/02 05:39:05;;;;;;;19.65;8.57;;;;;;;12.51;100.00;101861.59;5020465;28;20049;-83
2023/10/02 05:41:41;;;;;;;24.08;8.63;;;;;;;12.45;100.00;101859.88;5029383;28;20037;-84
2023/10/02 05:44:13;;;;;;;23.47;9.30;;;;;;;12.51;100.00;101850.84;5026721;28;20489;-84
2023/10/02 05:46:55;;;;;;;25.23;8.97;;;;;;;12.50;100.00;101857.28;5025453;28;20327;-83
2023/10/02 05:49:23;;;;;;;25.48;9.10;;;;;;;12.66;100.00;101862.88;5028733;28;20021;-84
2023/10/02 05:51:55;;;;;;;20.27;8.50;;;;;;;12.64;100.00;101865.00;5023737;28;20030;-83
2023/10/02 05:54:35;;;;;;;20.55;9.43;;;;;;;12.62;100.00;101865.25;5021413;28;20028;-83
2023/10/02 05:57:14;;;;;;;21.88;9.00;;;;;;;12.66;100.00;101870.94;5026702;28;20037;-83
2023/10/02 05:59:44;;;;;;;23.42;8.52;;;;;;;12.69;100.00;101882.00;5023456;28;20033;-85
2023/10/02 06:02:13;;;;;;;20.30;8.90;;;;;;;12.69;100.00;101886.59;5029800;28;20025;-82
2023/10/02 06:04:47;;;;;;;24.03;9.00;;;;;;;12.74;100.00;101892.06;5029266;28;20112;-85
2023/10/02 06:07:19;;;;;;;22.10;8.87;;;;;;;12.75;100.00;101885.63;5028905;28;20687;-87
2023/10/02 06:09:46;;;;;;;21.67;9.02;;;;;;;12.83;100.00;101884.38;5026478;28;20048;-87
2023/10/02 06:12:12;;;;;;;22.98;9.57;;;;;;;12.97;100.00;101876.75;5034057;28;20112;-87
2023/10/02 06:14:39;;;;;;;21.77;10.02;;;;;;;13.00;100.00;101871.72;5033132;28;20021;-87
2023/10/02 06:17:11;;;;;;;28.33;10.27;;;;;;;13.16;100.00;101880.78;5027525;28;20067;-84
2023/10/02 06:19:43;;;;;;;29.45;10.10;;;;;;;13.24;100.00;101884.13;5029692;28;20115;-86
2023/10/02 06:22:13;;;;;;;25.10;10.00;;;;;;;13.28;100.00;101882.56;5029493;28;20386;-85
2023/10/02 06:24:42;;;;;;;27.50;10.17;;;;;;;13.33;100.00;101885.28;5028027;28;20107;-86
2023/10/02 06:27:12;;;;;;;24.23;9.80;;;;;;;13.38;100.00;101884.56;5025088;28;20314;-86
2023/10/02 06:29:38;;;;;;;27.30;10.25;;;;;;;13.46;100.00;101887.66;5009959;28;20124;-86
2023/10/02 06:32:05;;;;;;;24.70;9.90;;;;;;;13.50;100.00;101881.78;5021383;28;20026;-86
2023/10/02 06:34:38;;;;;;;28.80;10.63;;;;;;;13.61;100.00;101888.88;5012904;28;20025;-86
2023/10/02 06:37:12;;;;;;;25.73;10.48;;;;;;;13.66;100.00;101891.66;5023558;28;20030;-87
2023/10/02 06:39:44;;;;;;;26.03;10.23;;;;;;;13.70;100.00;101890.06;5025128;28;20408;-87
2023/10/02 06:42:12;;;;;;;23.23;10.47;;;;;;;13.76;100.00;101888.25;5027769;28;20280;-88
2023/10/02 06:44:41;;;;;;;26.98;10.63;;;;;;;13.83;100.00;101891.53;5021330;28;20026;-89
2023/10/02 06:47:13;;;;;;;30.50;11.25;;;;;;;13.95;100.00;101887.91;5028498;28;20033;-88
2023/10/02 06:49:43;;;;;;;26.30;10.05;;;;;;;14.05;100.00;101898.75;5028290;28;20495;-87
2023/10/02 06:52:16;;;;;;;28.33;10.32;;;;;;;14.17;100.00;101890.53;5027789;28;20026;-88
2023/10/02 06:54:48;;;;;;;30.02;10.57;;;;;;;14.26;100.00;101897.06;5027146;28;20025;-87
2023/10/02 06:57:18;;;;;;;25.20;9.63;;;;;;;14.34;100.00;101893.91;5010532;28;20057;-87
2023/10/02 06:59:54;;;;;;;28.57;10.57;;;;;;;14.45;100.00;101899.38;5009689;28;20022;-88
2023/10/02 07:02:27;;;;;;;25.67;9.97;;;;;;;14.48;100.00;101898.84;5021962;28;20816;-85
2023/10/02 07:04:55;;;;;;;28.73;10.15;;;;;;;14.58;100.00;101892.72;5028004;28;20029;-87
2023/10/02 07:07:26;;;;;;;27.27;10.90;;;;;;;14.64;100.00;101895.19;5029715;28;20060;-86
2023/10/02 07:10:11;;;;;;;23.23;10.07;;;;;;;14.73;100.00;101889.38;5028980;28;20022;-87
2023/10/02 07:12:40;;;;;;;27.70;10.85;;;;;;;14.81;100.00;101891.56;5009519;28;20036;-87
2023/10/02 07:15:10;;;;;;;26.50;10.80;;;;;;;14.95;100.00;101895.44;5009910;28;20032;-86
2023/10/02 07:17:47;;;;;;;26.03;10.00;;;;;;;15.03;100.00;101885.22;5017993;28;20428;-88
2023/10/02 07:20:19;;;;;;;24.40;10.20;;;;;;;15.19;100.00;101891.50;5012879;28;22309;-88
2023/10/02 07:22:45;;;;;;;27.85;10.45;;;;;;;15.35;100.00;101897.75;5025084;28;20025;-87
2023/10/02 07:25:11;;;;;;;28.58;10.07;;;;;;;15.51;100.00;101895.94;5029078;28;20629;-86
2023/10/02 07:27:37;;;;;;;27.43;9.93;;;;;;;15.71;100.00;101900.59;5033021;28;20116;-87
2023/10/02 07:30:04;;;;;;;27.52;10.07;;;;;;;15.97;100.00;101906.09;5032649;28;20030;-87
2023/10/02 07:32:32;;;;;;;25.77;10.55;;;;;;;16.26;100.00;101900.16;5031223;28;20022;-87
2023/10/02 07:35:09;;;;;;;24.60;10.52;;;;;;;16.50;100.00;101895.03;5029957;28;20032;-87
2023/10/02 07:37:36;;;;;;;27.00;10.20;;;;;;;16.78;100.00;101899.06;5034892;28;20025;-86
2023/10/02 07:40:02;;;;;;;27.38;9.48;;;;;;;17.05;100.00;101906.03;5033552;28;20032;-87
2023/10/02 07:42:29;;;;;;;25.63;10.48;;;;;;;17.27;100.00;101902.19;5033245;28;20025;-86
2023/10/02 07:50:35;;;;;;;26.65;10.07;;;;;;;17.58;100.00;101906.66;5023187;28;20041;-85
2023/10/02 07:53:04;;;;;;;25.13;9.73;;;;;;;17.67;100.00;101910.38;5032243;28;20022;-86
2023/10/02 07:55:29;;;;;;;25.02;9.52;;;;;;;17.70;100.00;101910.66;5030158;28;20064;-85
2023/10/02 07:58:01;;;;;;;21.85;9.70;;;;;;;17.73;100.00;101906.56;5031262;28;20025;-85
2023/10/02 08:00:38;;;;;;;25.13;9.70;;;;;;;17.81;100.00;101910.59;5031590;28;20120;-86
2023/10/02 08:03:29;;;;;;;23.93;10.53;;;;;;;17.80;100.00;101900.81;5031761;28;20280;-85
2023/10/02 08:05:51;;;;;;;25.13;9.43;;;;;;;17.82;100.00;101904.88;5020271;28;20144;-86
2023/10/02 08:08:18;;;;;;;24.30;9.80;;;;;;;17.80;100.00;101908.97;5028842;28;20544;-85
2023/10/02 08:10:49;;;;;;;24.53;10.00;;;;;;;17.68;100.00;101904.69;5028524;28;20033;-85
2023/10/02 08:13:16;;;;;;;21.58;9.15;;;;;;;17.58;100.00;101904.75;5030116;28;20499;-85
2023/10/02 08:15:44;;;;;;;26.92;9.90;;;;;;;17.49;100.00;101903.72;5030393;28;20057;-86
2023/10/02 08:18:17;;;;;;;23.20;9.25;;;;;;;17.50;100.00;101906.13;5027179;28;20029;-86
2023/10/02 08:20:45;;;;;;;22.95;9.88;;;;;;;17.51;100.00;101909.66;5025432;28;20029;-85
2023/10/02 08:23:23;;;;;;;21.93;9.07;;;;;;;17.50;100.00;101897.22;5020045;28;20029;-85
2023/10/02 08:26:05;;;;;;;26.30;9.60;;;;;;;17.58;100.00;101918.28;5022761;28;20806;-86
2023/10/02 08:28:35;;;;;;;26.35;10.73;;;;;;;17.53;100.00;101911.00;5026935;28;20040;-86
2023/10/02 08:31:01;;;;;;;26.40;10.00;;;;;;;17.55;100.00;101911.53;5031089;28;20101;-86
2023/10/02 08:33:30;;;;;;;25.00;10.10;;;;;;;17.72;100.00;101915.78;5030777;28;20477;-86
2023/10/02 08:35:56;;;;;;;23.88;9.15;;;;;;;17.89;100.00;101909.19;5027873;28;20027;-86
2023/10/02 08:38:22;;;;;;;23.60;9.75;;;;;;;18.21;100.00;101916.84;5030924;28;20036;-85
2023/10/02 08:40:59;;;;;;;28.77;10.13;;;;;;;18.52;100.00;101919.28;5031279;28;20033;-85
2023/10/02 08:43:29;;;;;;;27.27;9.60;;;;;;;18.97;100.00;101919.16;5031955;28;20021;-85
2023/10/02 08:45:55;;;;;;;20.43;9.00;;;;;;;19.35;100.00;101915.75;5029501;28;20473;-86
2023/10/02 08:48:22;;;;;;;24.93;10.17;;;;;;;19.69;100.00;101917.47;5030390;28;20326;-85
2023/10/02 08:50:48;;;;;;;29.05;9.82;;;;;;;19.98;100.00;101921.97;5031497;28;20029;-86
2023/10/02 08:53:20;;;;;;;24.25;10.48;;;;;;;20.28;100.00;101928.03;5031661;28;20394;-85
2023/10/02 08:56:57;;;;;;;25.23;10.13;;;;;;;20.52;100.00;101921.63;5029053;28;20091;-86
2023/10/02 08:59:15;;;;;;;23.33;10.00;;;;;;;20.62;100.00;101916.03;5016473;28;20120;-87
2023/10/02 09:01:41;;;;;;;30.37;10.07;;;;;;;20.42;100.00;101903.56;5031052;28;20018;-85
2023/10/02 09:04:23;;;;;;;24.37;10.40;;;;;;;20.45;100.00;101904.91;5031431;28;20286;-85
2023/10/02 09:06:49;;;;;;;24.58;10.18;;;;;;;20.59;100.00;101900.28;5009555;28;20034;-85
2023/10/02 09:12:03;;;;;;;21.60;9.88;;;;;;;20.90;100.00;101905.19;5031114;28;20040;-86
2023/10/02 09:17:07;;;;;;;23.73;9.43;;;;;;;20.90;100.00;101907.91;5026252;28;20029;-85
2023/10/02 09:19:37;;;;;;;20.40;9.27;;;;;;;20.90;100.00;101918.00;5029277;28;20034;-85
2023/10/02 09:22:07;;;;;;;22.73;9.68;;;;;;;20.86;100.00;101918.59;5031229;28;20033;-85
2023/10/02 09:24:36;;;;;;;21.70;9.90;;;;;;;20.85;100.00;101916.16;5030023;28;20034;-85
2023/10/02 09:27:31;;;;;;;24.25;9.43;;;;;;;20.81;100.00;101905.06;5033548;28;20469;-86
2023/10/02 09:32:47;;;;;;;24.15;9.98;;;;;;;20.60;100.00;101895.63;5011439;28;20041;-85
2023/10/02 09:35:40;;;;;;;24.73;10.73;;;;;;;20.43;100.00;101905.19;5015346;28;20033;-85
2023/10/02 09:38:10;;;;;;;21.23;9.33;;;;;;;20.26;100.00;101908.47;5029578;28;20040;-85
2023/10/02 09:43:28;;;;;;;23.77;9.73;;;;;;;20.03;100.00;101902.84;5027266;28;20119;-85
2023/10/02 09:46:15;;;;;;;23.95;9.80;;;;;;;19.96;100.00;101896.97;5031194;28;20029;-85
2023/10/02 09:49:01;;;;;;;23.45;10.15;;;;;;;19.95;100.00;101890.72;5029443;28;20029;-85
2023/10/02 09:51:27;;;;;;;22.08;9.90;;;;;;;19.95;100.00;101895.34;5030596;28;20056;-85
2023/10/02 09:54:08;;;;;;;21.57;9.37;;;;;;;19.96;100.00;101896.97;5028814;28;20576;-86
2023/10/02 09:56:41;;;;;;;21.20;9.77;;;;;;;19.99;100.00;101896.38;5028984;28;20112;-85
2023/10/02 09:59:16;;;;;;;23.77;10.25;;;;;;;20.10;100.00;101892.38;5029296;28;20041;-85
2023/10/02 10:02:01;;;;;;;23.90;10.30;;;;;;;20.21;100.00;101901.19;5030476;28;20068;-85
2023/10/02 10:13:34;;;;;;;22.60;9.77;;;;;;;20.84;100.00;101904.47;5028964;28;20079;-85
2023/10/02 10:16:29;;;;;;;22.98;10.65;;;;;;;21.05;100.00;101897.81;5027934;28;20029;-85
2023/10/02 10:19:22;;;;;;;21.85;9.70;;;;;;;21.30;100.00;101891.84;4986866;28;20085;-86
2023/10/02 10:21:56;;;;;;;23.08;10.73;;;;;;;21.60;100.00;101881.41;5026199;28;20124;-86
2023/10/02 10:24:55;;;;;;;26.15;10.70;;;;;;;21.77;100.00;101880.75;5028365;28;20034;-88
2023/10/02 10:27:54;;;;;;;28.13;10.37;;;;;;;21.85;100.00;101881.94;5045792;28;20074;-86
2023/10/02 10:30:24;;;;;;;22.10;9.93;;;;;;;21.99;100.00;101883.78;5021236;28;20033;-86
2023/10/02 10:35:41;;;;;;;26.77;10.52;;;;;;;22.13;100.00;101870.09;5028147;28;20041;-87
2023/10/02 10:38:22;;;;;;;22.85;9.38;;;;;;;22.33;100.00;101879.66;5029769;28;20021;-86
2023/10/02 10:40:54;;;;;;;23.33;10.45;;;;;;;22.29;100.00;101870.47;5029701;28;20485;-88
2023/10/02 10:43:21;;;;;;;27.20;10.40;;;;;;;22.30;100.00;101863.91;5028070;28;20111;-86
2023/10/02 10:45:51;;;;;;;23.63;10.00;;;;;;;22.39;100.00;101868.28;5029270;28;20843;-86
2023/10/02 10:48:24;;;;;;;25.38;9.95;;;;;;;22.62;100.00;101860.06;5028528;28;20053;-87
2023/10/02 10:50:59;;;;;;;27.15;10.77;;;;;;;22.90;100.00;101870.78;5030066;28;20030;-87
2023/10/02 10:53:32;;;;;;;27.33;10.98;;;;;;;22.95;100.00;101865.16;5028389;28;20026;-86
2023/10/02 10:56:05;;;;;;;23.17;10.43;;;;;;;23.07;100.00;101870.00;5029792;28;20025;-83
2023/10/02 10:58:33;;;;;;;23.17;10.55;;;;;;;23.13;100.00;101860.56;5030314;28;20037;-87
2023/10/02 11:01:02;;;;;;;23.63;10.67;;;;;;;23.23;100.00;101859.47;5032602;28;20029;-87
2023/10/02 11:03:27;;;;;;;19.13;9.95;;;;;;;23.27;100.00;101863.19;5013552;28;20025;-87
2023/10/02 11:06:02;;;;;;;23.90;9.95;;;;;;;23.21;100.00;101858.16;5016303;28;20029;-87
2023/10/02 11:08:29;;;;;;;24.20;10.37;;;;;;;23.23;100.00;101854.00;5033240;28;20036;-87
2023/10/02 11:11:01;;;;;;;23.73;9.55;;;;;;;23.23;100.00;101850.44;5032577;28;20584;-88
2023/10/02 11:13:50;;;;;;;19.13;9.75;;;;;;;23.22;100.00;101849.66;5032190;28;20017;-86
2023/10/02 11:16:31;;;;;;;24.50;10.32;;;;;;;23.28;100.00;101851.09;5030834;28;20377;-88
2023/10/02 11:19:21;;;;;;;21.25;10.02;;;;;;;23.39;100.00;101854.31;5031731;28;20030;-87
2023/10/02 11:22:15;;;;;;;22.55;10.20;;;;;;;23.69;100.00;101843.56;5032445;28;20071;-86
2023/10/02 11:24:41;;;;;;;22.27;9.80;;;;;;;23.90;99.12;101838.22;5032095;28;20104;-85
2023/10/02 11:27:08;;;;;;;24.08;10.40;;;;;;;24.07;99.18;101833.84;5032191;28;20052;-85
2023/10/02 11:29:43;;;;;;;23.38;9.93;;;;;;;24.54;99.88;101835.00;5028767;28;20519;-84
2023/10/02 11:32:19;;;;;;;19.88;9.43;;;;;;;25.06;96.24;101839.41;5024708;28;20464;-84
2023/10/02 11:34:49;;;;;;;23.00;10.35;;;;;;;24.99;89.57;101839.13;5035008;28;20495;-85
2023/10/02 11:37:16;;;;;;;22.37;10.10;;;;;;;25.00;86.00;101835.25;5032399;28;20029;-84
2023/10/02 11:39:42;;;;;;;25.27;10.43;;;;;;;25.18;86.91;101835.94;5028052;28;20394;-84
2023/10/02 11:42:09;;;;;;;24.35;10.10;;;;;;;25.59;88.11;101830.78;5028175;28;20033;-84
2023/10/02 11:44:34;;;;;;;24.83;10.90;;;;;;;25.87;84.69;101835.69;5029596;28;20057;-84
2023/10/02 11:47:00;;;;;;;23.53;10.73;;;;;;;25.94;82.46;101824.94;5033216;28;20067;-84
2023/10/02 11:49:29;;;;;;;19.65;9.52;;;;;;;25.99;81.37;101830.22;5032349;28;20037;-84
2023/10/02 11:52:00;;;;;;;22.40;10.00;;;;;;;25.99;83.30;101820.06;5030324;28;20076;-84
2023/10/02 11:54:26;;;;;;;24.63;10.83;;;;;;;25.89;83.59;101808.72;5032362;28;20646;-85
2023/10/02 11:56:51;;;;;;;23.45;10.63;;;;;;;25.72;81.92;101810.50;5030157;28;20030;-85
2023/10/02 11:59:17;;;;;;;25.30;11.03;;;;;;;25.52;83.33;101812.94;5028335;28;20107;-84
2023/10/02 12:01:47;;;;;;;25.73;10.45;;;;;;;25.35;84.71;101802.09;5029100;28;20022;-84
2023/10/02 12:04:15;;;;;;;22.00;10.90;;;;;;;25.54;85.32;101807.09;5031972;28;20032;-84
2023/10/02 12:06:41;;;;;;;24.77;10.63;;;;;;;25.60;83.10;101807.69;5030267;28;20079;-84
2023/10/02 12:09:06;;;;;;;20.98;10.30;;;;;;;25.58;83.75;101804.47;5028864;28;20489;-84
2023/10/02 12:11:34;;;;;;;21.85;10.52;;;;;;;25.62;84.81;101800.75;5031755;28;20018;-84
2023/10/02 12:13:59;;;;;;;22.10;9.98;;;;;;;25.69;84.62;101805.69;5031955;28;20021;-84
2023/10/02 12:16:25;;;;;;;19.33;9.97;;;;;;;25.58;83.67;101799.81;5030458;28;20611;-84
2023/10/02 12:18:51;;;;;;;20.58;9.82;;;;;;;25.73;85.57;101787.41;5032598;28;20026;-84
2023/10/02 12:21:19;;;;;;;21.33;9.80;;;;;;;25.78;84.67;101789.91;5029852;28;20033;-84